Time;durP1;ratioP1;P1;durP2;ratioP2;P2;SDS_P1;SDS_P2;PMS_P1;PMS_P2;Temp;Humidity;BMP_temperature;BMP_pressure;BME280_temperature;BME280_humidity;BME280_pressure;Samples;Min_cycle;Max_cycle;Signal;HPM_P1;HPM_P2
2022/01/22 00:01:09;;;;;;;;;42.00;35.50;;;;;;;;5045573;28;45405;-66
2022/01/22 00:03:34;;;;;;;;;75.00;61.75;;;;;;;;5045886;28;45758;-65
2022/01/22 00:05:59;;;;;;;;;70.00;57.50;;;;;;;;5059931;28;45378;-66
2022/01/22 00:08:24;;;;;;;;;47.50;41.25;;;;;;;;5052328;28;45433;-67
2022/01/22 00:10:51;;;;;;;;;58.75;48.00;;;;;;;;5052559;28;45630;-67
2022/01/22 00:15:42;;;;;;;;;27.00;26.00;;;;;;;;5056722;28;45443;-67
2022/01/22 00:18:07;;;;;;;;;26.00;23.00;;;;;;;;5083722;27;45513;-66
2022/01/22 00:20:33;;;;;;;;;25.50;22.25;;;;;;;;5083864;27;45829;-66
2022/01/22 00:22:58;;;;;;;;;28.75;26.50;;;;;;;;5065566;27;48897;-66
2022/01/22 00:25:23;;;;;;;;;27.50;23.25;;;;;;;;5103340;27;45578;-67
2022/01/22 00:27:50;;;;;;;;;28.50;20.25;;;;;;;;5074788;27;45418;-68
2022/01/22 00:30:17;;;;;;;;;21.75;21.25;;;;;;;;5088130;27;45425;-67
2022/01/22 00:32:42;;;;;;;;;26.25;23.50;;;;;;;;5073423;27;47696;-66
2022/01/22 00:35:08;;;;;;;;;23.00;23.00;;;;;;;;5077469;27;45439;-67
2022/01/22 00:37:35;;;;;;;;;19.50;19.50;;;;;;;;5094203;27;45413;-66
2022/01/22 00:40:03;;;;;;;;;21.75;20.00;;;;;;;;5091723;27;45447;-67
2022/01/22 00:42:28;;;;;;;;;26.75;26.25;;;;;;;;5086534;27;45844;-66
2022/01/22 00:44:53;;;;;;;;;29.00;26.25;;;;;;;;5090300;27;45383;-67
2022/01/22 00:47:18;;;;;;;;;30.00;24.25;;;;;;;;5098453;27;44934;-66
2022/01/22 00:49:44;;;;;;;;;27.00;24.75;;;;;;;;5086386;27;45412;-66
2022/01/22 00:52:10;;;;;;;;;24.00;22.50;;;;;;;;5073020;27;47646;-66
2022/01/22 00:54:35;;;;;;;;;25.25;22.75;;;;;;;;5068650;27;45454;-66
2022/01/22 00:57:00;;;;;;;;;29.75;27.00;;;;;;;;5085659;27;45407;-66
2022/01/22 00:59:26;;;;;;;;;26.00;23.25;;;;;;;;5064136;27;45478;-68
2022/01/22 01:01:51;;;;;;;;;33.00;25.00;;;;;;;;5090090;27;46491;-66
2022/01/22 01:04:16;;;;;;;;;29.25;26.00;;;;;;;;5085652;27;45467;-66
2022/01/22 01:06:42;;;;;;;;;24.00;22.75;;;;;;;;5092390;27;45345;-65
2022/01/22 01:09:08;;;;;;;;;21.25;21.00;;;;;;;;5079010;27;45328;-66
2022/01/22 01:11:38;;;;;;;;;27.75;23.50;;;;;;;;5100333;27;45835;-66
2022/01/22 01:14:06;;;;;;;;;25.00;22.25;;;;;;;;5096358;27;45846;-67
2022/01/22 01:32:53;;;;;;;;;23.00;22.25;;;;;;;;5095908;27;45583;-66
2022/01/22 01:35:18;;;;;;;;;14.50;13.50;;;;;;;;5080876;27;45376;-67
2022/01/22 01:37:43;;;;;;;;;25.25;23.75;;;;;;;;5092314;27;45480;-67
2022/01/22 01:40:10;;;;;;;;;24.75;21.50;;;;;;;;5076502;27;45428;-68
2022/01/22 01:45:04;;;;;;;;;24.25;20.00;;;;;;;;5093789;27;45361;-66
2022/01/22 01:47:29;;;;;;;;;19.75;19.50;;;;;;;;5090506;27;45384;-66
2022/01/22 01:49:55;;;;;;;;;18.50;18.25;;;;;;;;5091006;27;45443;-66
2022/01/22 01:52:28;;;;;;;;;26.00;21.75;;;;;;;;5075178;27;47733;-66
2022/01/22 01:55:09;;;;;;;;;19.75;18.25;;;;;;;;5088252;27;45367;-66
2022/01/22 01:57:41;;;;;;;;;27.50;22.75;;;;;;;;5087377;27;45329;-66
2022/01/22 02:00:17;;;;;;;;;28.50;23.00;;;;;;;;5088270;27;45581;-66
2022/01/22 02:02:44;;;;;;;;;26.75;20.25;;;;;;;;5091664;27;46119;-65
2022/01/22 02:05:11;;;;;;;;;27.00;23.75;;;;;;;;5080998;27;45433;-66
2022/01/22 02:07:38;;;;;;;;;24.25;22.75;;;;;;;;5078299;27;45433;-66
2022/01/22 02:10:04;;;;;;;;;27.25;24.50;;;;;;;;5090400;27;45317;-66
2022/01/22 02:25:55;;;;;;;;;23.50;23.50;;;;;;;;5092475;27;45356;-66
2022/01/22 02:28:20;;;;;;;;;26.75;26.00;;;;;;;;5096155;27;45675;-66
2022/01/22 02:30:49;;;;;;;;;24.25;23.00;;;;;;;;5092890;27;45479;-67
2022/01/22 02:33:29;;;;;;;;;23.25;23.25;;;;;;;;5076317;27;48615;-66
2022/01/22 02:36:12;;;;;;;;;25.00;22.25;;;;;;;;5074383;27;45601;-66
2022/01/22 02:38:52;;;;;;;;;23.50;23.00;;;;;;;;5082801;27;45565;-66
2022/01/22 02:41:19;;;;;;;;;27.50;21.75;;;;;;;;5083387;27;45385;-66
2022/01/22 02:43:48;;;;;;;;;18.25;16.00;;;;;;;;5073820;28;48461;-66
2022/01/22 02:46:24;;;;;;;;;25.75;21.50;;;;;;;;5070413;27;45498;-66
2022/01/22 02:48:50;;;;;;;;;20.25;20.25;;;;;;;;5086731;27;45418;-67
2022/01/22 02:51:16;;;;;;;;;16.25;16.00;;;;;;;;5076293;27;45435;-66
2022/01/22 02:53:41;;;;;;;;;19.50;18.75;;;;;;;;5073963;27;47904;-66
2022/01/22 02:56:06;;;;;;;;;27.50;23.75;;;;;;;;5089958;27;45336;-66
2022/01/22 02:58:32;;;;;;;;;20.00;18.25;;;;;;;;5077644;27;45535;-66
2022/01/22 03:00:57;;;;;;;;;15.75;14.50;;;;;;;;5087515;27;45460;-66
2022/01/22 03:03:22;;;;;;;;;27.50;24.00;;;;;;;;5075530;27;47535;-66
2022/01/22 03:05:48;;;;;;;;;21.25;21.00;;;;;;;;5084969;27;45427;-65
2022/01/22 03:08:14;;;;;;;;;24.50;22.50;;;;;;;;5087614;27;45221;-66
2022/01/22 03:10:43;;;;;;;;;17.75;15.50;;;;;;;;5087065;27;45277;-65
2022/01/22 03:18:33;;;;;;;;;18.50;15.00;;;;;;;;5089451;27;45555;-67
2022/01/22 03:29:11;;;;;;;;;22.25;19.25;;;;;;;;5083297;27;45299;-66
2022/01/22 03:31:37;;;;;;;;;19.75;17.25;;;;;;;;5072436;27;45638;-66
2022/01/22 03:34:03;;;;;;;;;26.75;22.75;;;;;;;;5064398;28;47584;-65
2022/01/22 03:36:30;;;;;;;;;24.00;17.75;;;;;;;;5069075;27;46278;-66
2022/01/22 03:38:55;;;;;;;;;12.25;12.00;;;;;;;;5092318;27;45262;-66
2022/01/22 03:41:23;;;;;;;;;21.25;20.00;;;;;;;;5089409;27;45383;-66
2022/01/22 03:43:48;;;;;;;;;15.75;15.50;;;;;;;;5075874;27;46483;-66
2022/01/22 03:46:13;;;;;;;;;24.50;21.00;;;;;;;;5088679;27;45253;-66
2022/01/22 03:48:40;;;;;;;;;18.50;16.00;;;;;;;;5088101;27;45245;-65
2022/01/22 03:51:05;;;;;;;;;21.25;19.50;;;;;;;;5090205;27;45411;-66
2022/01/22 03:53:30;;;;;;;;;19.50;18.25;;;;;;;;5070340;27;47966;-66
2022/01/22 03:58:27;;;;;;;;;18.75;18.75;;;;;;;;5089411;27;45318;-66
2022/01/22 04:01:08;;;;;;;;;19.00;18.25;;;;;;;;5074218;27;45491;-66
2022/01/22 04:03:40;;;;;;;;;20.00;17.50;;;;;;;;5088325;27;45709;-66
2022/01/22 04:08:30;;;;;;;;;21.00;18.50;;;;;;;;5091418;27;45336;-65
2022/01/22 04:10:56;;;;;;;;;18.50;18.50;;;;;;;;5088692;27;45446;-65
2022/01/22 04:13:28;;;;;;;;;18.75;18.75;;;;;;;;5068140;27;48410;-65
2022/01/22 04:15:53;;;;;;;;;19.00;18.00;;;;;;;;5086433;27;45500;-67
2022/01/22 04:29:05;;;;;;;;;17.50;13.75;;;;;;;;5088256;27;45370;-65
2022/01/22 04:31:30;;;;;;;;;13.25;10.00;;;;;;;;5065273;28;45460;-66
2022/01/22 04:33:55;;;;;;;;;19.75;15.50;;;;;;;;5065379;28;47582;-65
2022/01/22 04:36:20;;;;;;;;;16.00;15.25;;;;;;;;5081166;27;45683;-66
2022/01/22 04:38:46;;;;;;;;;17.75;16.75;;;;;;;;5097088;27;45423;-66
2022/01/22 04:41:11;;;;;;;;;18.00;16.25;;;;;;;;5091961;27;45437;-65
2022/01/22 04:43:39;;;;;;;;;20.75;19.25;;;;;;;;5093569;27;45346;-65
2022/01/22 04:56:41;;;;;;;;;17.25;17.25;;;;;;;;5095738;27;45527;-66
2022/01/22 04:59:06;;;;;;;;;20.75;19.25;;;;;;;;5073059;27;45450;-66
2022/01/22 05:01:31;;;;;;;;;21.50;19.75;;;;;;;;5093149;27;45413;-66
2022/01/22 05:03:56;;;;;;;;;17.75;16.00;;;;;;;;5090217;27;45721;-65
2022/01/22 05:06:21;;;;;;;;;17.25;15.75;;;;;;;;5091187;27;45463;-66
2022/01/22 05:08:47;;;;;;;;;19.00;18.25;;;;;;;;5096077;27;45400;-65
2022/01/22 05:11:12;;;;;;;;;20.25;17.50;;;;;;;;5091101;27;45492;-66
2022/01/22 05:13:38;;;;;;;;;20.75;18.25;;;;;;;;5093236;27;45612;-66
2022/01/22 05:16:03;;;;;;;;;20.75;17.00;;;;;;;;5086071;27;45347;-66
2022/01/22 05:18:28;;;;;;;;;16.50;16.50;;;;;;;;5089266;27;45511;-66
2022/01/22 05:21:05;;;;;;;;;18.75;17.75;;;;;;;;5086019;27;45460;-66
2022/01/22 05:23:31;;;;;;;;;16.00;14.00;;;;;;;;5093051;27;45835;-66
2022/01/22 05:26:00;;;;;;;;;21.00;17.75;;;;;;;;5087693;27;45541;-66
2022/01/22 05:39:14;;;;;;;;;24.00;23.00;;;;;;;;5087990;27;45384;-65
2022/01/22 05:41:40;;;;;;;;;20.25;19.75;;;;;;;;5086037;27;45589;-66
2022/01/22 05:44:05;;;;;;;;;21.50;20.50;;;;;;;;5072114;27;48231;-66
2022/01/22 05:46:31;;;;;;;;;18.50;18.00;;;;;;;;5085549;27;46119;-66
2022/01/22 05:48:56;;;;;;;;;18.75;17.25;;;;;;;;5091673;27;45521;-66
2022/01/22 05:51:21;;;;;;;;;22.25;19.75;;;;;;;;5089274;27;45412;-66
2022/01/22 06:01:43;;;;;;;;;24.50;21.50;;;;;;;;5092820;27;45420;-66
2022/01/22 06:04:09;;;;;;;;;26.75;19.00;;;;;;;;5063294;28;46631;-66
2022/01/22 06:06:34;;;;;;;;;26.25;25.50;;;;;;;;5088476;27;45538;-66
2022/01/22 06:09:02;;;;;;;;;20.25;20.00;;;;;;;;5075183;27;45510;-66
2022/01/22 06:11:29;;;;;;;;;23.25;20.50;;;;;;;;5092559;27;45421;-64
2022/01/22 06:13:54;;;;;;;;;24.50;21.00;;;;;;;;5089392;27;46566;-67
2022/01/22 06:16:21;;;;;;;;;20.75;18.25;;;;;;;;5091478;27;45455;-66
2022/01/22 06:18:47;;;;;;;;;31.75;27.75;;;;;;;;5089660;27;45674;-65
2022/01/22 06:21:12;;;;;;;;;26.25;22.75;;;;;;;;5090000;27;46029;-65
2022/01/22 06:23:38;;;;;;;;;19.50;18.50;;;;;;;;5093379;27;45434;-65
2022/01/22 06:26:04;;;;;;;;;26.25;23.75;;;;;;;;5090502;27;45459;-66
2022/01/22 06:28:30;;;;;;;;;28.00;25.00;;;;;;;;5092289;27;45705;-65
2022/01/22 06:30:55;;;;;;;;;25.75;20.00;;;;;;;;5090158;27;45306;-65
2022/01/22 06:33:21;;;;;;;;;30.75;26.25;;;;;;;;5089576;27;45615;-65
2022/01/22 06:35:46;;;;;;;;;26.50;25.00;;;;;;;;5094990;27;45391;-65
2022/01/22 06:38:12;;;;;;;;;25.50;23.75;;;;;;;;5095005;27;45372;-66
2022/01/22 06:43:04;;;;;;;;;28.25;25.75;;;;;;;;5089288;27;45738;-65
2022/01/22 06:45:30;;;;;;;;;26.75;26.25;;;;;;;;5075551;27;45500;-66
2022/01/22 06:47:55;;;;;;;;;24.75;23.50;;;;;;;;5085611;27;45395;-65
2022/01/22 06:50:21;;;;;;;;;27.25;23.50;;;;;;;;5090585;27;45334;-65
2022/01/22 06:52:47;;;;;;;;;28.25;22.75;;;;;;;;5092603;27;46840;-68
2022/01/22 06:55:15;;;;;;;;;42.00;37.50;;;;;;;;5089808;27;45322;-66
2022/01/22 06:57:41;;;;;;;;;38.25;34.75;;;;;;;;5071454;27;45563;-67
2022/01/22 07:00:06;;;;;;;;;34.25;30.50;;;;;;;;5072848;27;45540;-65
2022/01/22 07:02:31;;;;;;;;;27.25;27.25;;;;;;;;5064700;27;47552;-67
2022/01/22 07:04:57;;;;;;;;;35.75;28.50;;;;;;;;5071530;27;46018;-66
2022/01/22 07:07:22;;;;;;;;;31.25;28.50;;;;;;;;5091588;27;45430;-66
2022/01/22 07:09:47;;;;;;;;;27.75;26.00;;;;;;;;5094898;27;45581;-66
2022/01/22 07:12:13;;;;;;;;;29.25;25.75;;;;;;;;5092671;27;45332;-66
2022/01/22 07:14:39;;;;;;;;;28.50;25.75;;;;;;;;5095898;27;45337;-66
2022/01/22 07:17:04;;;;;;;;;26.00;24.00;;;;;;;;5081586;27;45455;-66
2022/01/22 07:19:37;;;;;;;;;30.75;29.75;;;;;;;;5090123;27;45412;-66
2022/01/22 07:22:08;;;;;;;;;32.25;29.25;;;;;;;;5088992;27;46577;-65
2022/01/22 07:24:37;;;;;;;;;30.50;26.75;;;;;;;;5075003;27;46519;-66
2022/01/22 07:27:05;;;;;;;;;30.00;26.50;;;;;;;;5091780;27;45376;-65
2022/01/22 07:29:30;;;;;;;;;34.75;31.25;;;;;;;;5092279;27;45395;-66
2022/01/22 07:32:00;;;;;;;;;27.25;27.25;;;;;;;;5068147;28;47503;-65
2022/01/22 07:34:25;;;;;;;;;33.00;27.50;;;;;;;;5070420;27;46374;-67
2022/01/22 07:36:50;;;;;;;;;29.50;27.25;;;;;;;;5067259;28;45408;-66
2022/01/22 07:39:16;;;;;;;;;28.75;27.25;;;;;;;;5085813;27;45416;-67
2022/01/22 07:41:41;;;;;;;;;31.00;27.50;;;;;;;;5093122;27;45322;-67
2022/01/22 07:44:06;;;;;;;;;27.25;20.75;;;;;;;;5088695;27;46411;-66
2022/01/22 07:46:31;;;;;;;;;28.00;28.00;;;;;;;;5089952;27;45540;-65
2022/01/22 07:48:57;;;;;;;;;31.50;28.50;;;;;;;;5088294;27;45418;-67
2022/01/22 07:51:22;;;;;;;;;19.25;19.25;;;;;;;;5075227;27;47644;-66
2022/01/22 07:53:47;;;;;;;;;28.25;27.50;;;;;;;;5075288;27;45334;-67
2022/01/22 07:56:13;;;;;;;;;34.75;29.75;;;;;;;;5095479;27;45342;-66
2022/01/22 07:58:38;;;;;;;;;38.75;32.00;;;;;;;;5071427;27;45350;-66
2022/01/22 08:01:03;;;;;;;;;37.00;32.00;;;;;;;;5088701;27;46412;-66
2022/01/22 08:03:29;;;;;;;;;32.00;26.50;;;;;;;;5088718;27;45472;-66
2022/01/22 08:05:54;;;;;;;;;29.00;25.50;;;;;;;;5092726;27;45460;-66
2022/01/22 08:08:19;;;;;;;;;34.25;30.50;;;;;;;;5085811;27;45458;-66
2022/01/22 08:10:45;;;;;;;;;28.50;27.25;;;;;;;;5090342;27;46484;-66
2022/01/22 08:13:11;;;;;;;;;29.75;20.75;;;;;;;;5077063;27;45284;-66
2022/01/22 08:15:36;;;;;;;;;29.50;29.50;;;;;;;;5078514;27;45445;-65
2022/01/22 08:18:03;;;;;;;;;29.75;29.75;;;;;;;;5085343;27;45566;-66
2022/01/22 08:20:28;;;;;;;;;28.50;28.50;;;;;;;;5094454;27;45884;-66
2022/01/22 08:22:53;;;;;;;;;31.25;27.50;;;;;;;;5093057;27;45271;-66
2022/01/22 08:25:19;;;;;;;;;27.00;24.75;;;;;;;;5092602;27;45582;-66
2022/01/22 08:30:28;;;;;;;;;33.25;30.75;;;;;;;;5091827;27;45769;-67
2022/01/22 08:35:53;;;;;;;;;32.00;32.00;;;;;;;;5091374;27;45529;-65
2022/01/22 08:38:18;;;;;;;;;31.75;26.75;;;;;;;;5076816;27;45400;-66
2022/01/22 08:40:43;;;;;;;;;33.25;28.75;;;;;;;;5094019;27;45965;-66
2022/01/22 08:43:09;;;;;;;;;32.00;29.25;;;;;;;;5091276;27;45396;-66
2022/01/22 08:45:35;;;;;;;;;35.00;30.00;;;;;;;;5087179;27;45531;-66
2022/01/22 08:48:00;;;;;;;;;31.75;29.00;;;;;;;;5095230;27;45594;-66
2022/01/22 08:50:25;;;;;;;;;32.50;30.75;;;;;;;;5093588;27;45459;-67
2022/01/22 08:52:50;;;;;;;;;26.25;22.50;;;;;;;;5092501;27;45416;-66
2022/01/22 08:55:16;;;;;;;;;38.75;33.75;;;;;;;;5092472;27;45438;-66
2022/01/22 08:57:41;;;;;;;;;29.75;26.00;;;;;;;;5095405;27;45442;-65
2022/01/22 09:00:06;;;;;;;;;31.75;29.25;;;;;;;;5093401;27;46898;-67
2022/01/22 09:02:34;;;;;;;;;34.50;30.00;;;;;;;;5075231;27;45349;-67
2022/01/22 09:05:00;;;;;;;;;29.25;26.50;;;;;;;;5091944;27;45347;-67
2022/01/22 09:07:25;;;;;;;;;31.75;29.00;;;;;;;;5092306;27;45352;-67
2022/01/22 09:09:50;;;;;;;;;27.00;26.00;;;;;;;;5072406;27;47902;-66
2022/01/22 09:12:16;;;;;;;;;30.25;27.25;;;;;;;;5087567;27;45471;-67
2022/01/22 09:14:42;;;;;;;;;34.75;32.25;;;;;;;;5095936;27;45509;-66
2022/01/22 09:17:07;;;;;;;;;31.50;27.00;;;;;;;;5071606;27;45441;-66
2022/01/22 09:19:34;;;;;;;;;26.75;25.50;;;;;;;;5074440;27;46471;-67
2022/01/22 09:22:00;;;;;;;;;29.75;25.75;;;;;;;;5076617;27;45495;-67
2022/01/22 09:24:26;;;;;;;;;29.25;29.25;;;;;;;;5086134;27;45551;-68
2022/01/22 09:26:51;;;;;;;;;34.75;31.75;;;;;;;;5097621;27;45553;-67
2022/01/22 09:29:16;;;;;;;;;38.00;34.00;;;;;;;;5086091;27;45675;-66
2022/01/22 09:31:42;;;;;;;;;37.50;33.75;;;;;;;;5096549;27;45484;-65
2022/01/22 09:34:08;;;;;;;;;29.50;27.25;;;;;;;;5090423;27;45530;-67
2022/01/22 09:36:33;;;;;;;;;34.75;29.00;;;;;;;;5074676;27;45520;-67
2022/01/22 09:38:59;;;;;;;;;34.25;28.25;;;;;;;;5091971;27;45991;-67
2022/01/22 09:41:25;;;;;;;;;39.25;34.50;;;;;;;;5091977;27;45392;-67
2022/01/22 09:43:50;;;;;;;;;30.00;27.00;;;;;;;;5091724;27;45262;-67
2022/01/22 09:46:16;;;;;;;;;35.75;31.50;;;;;;;;5090442;27;45620;-67
2022/01/22 09:48:46;;;;;;;;;33.00;31.25;;;;;;;;5070394;27;48375;-67
2022/01/22 09:51:12;;;;;;;;;33.00;30.75;;;;;;;;5091869;27;45459;-65
2022/01/22 09:53:38;;;;;;;;;34.75;33.50;;;;;;;;5093796;27;45470;-66
2022/01/22 09:56:03;;;;;;;;;41.00;35.00;;;;;;;;5084188;27;45337;-66
2022/01/22 09:58:30;;;;;;;;;38.75;32.00;;;;;;;;5092258;27;45689;-66
2022/01/22 10:01:15;;;;;;;;;31.00;29.00;;;;;;;;5090189;27;45502;-67
2022/01/22 10:03:40;;;;;;;;;31.25;28.00;;;;;;;;5089967;27;45601;-66
2022/01/22 10:06:12;;;;;;;;;35.50;33.50;;;;;;;;5090213;27;45386;-67
2022/01/22 10:08:39;;;;;;;;;46.25;40.00;;;;;;;;5089372;27;47514;-67
2022/01/22 10:11:14;;;;;;;;;41.50;33.75;;;;;;;;5071883;27;45528;-67
2022/01/22 10:13:41;;;;;;;;;51.00;42.00;;;;;;;;5092156;27;45379;-66
2022/01/22 10:16:26;;;;;;;;;60.25;43.50;;;;;;;;5076275;27;45536;-67
2022/01/22 10:19:29;;;;;;;;;115.50;104.25;;;;;;;;5094853;27;45759;-66
2022/01/22 10:21:59;;;;;;;;;67.00;54.33;;;;;;;;5014823;28;50628;-66
2022/01/22 10:24:29;;;;;;;;;62.25;51.25;;;;;;;;4996777;28;46541;-66
2022/01/22 10:27:18;;;;;;;;;67.75;54.75;;;;;;;;5012893;28;45447;-67
2022/01/22 10:29:47;;;;;;;;;64.75;51.25;;;;;;;;5013097;28;45483;-66
2022/01/22 10:33:09;;;;;;;;;73.00;58.00;;;;;;;;4996422;28;45262;-65
2022/01/22 10:35:13;;;;;;;;;55.75;44.00;;;;;;;;5003944;28;45371;-65
2022/01/22 10:37:38;;;;;;;;;32.25;30.25;;;;;;;;5017166;28;45347;-67
2022/01/22 10:40:16;;;;;;;;;27.75;26.75;;;;;;;;5013194;28;45993;-67
2022/01/22 10:42:41;;;;;;;;;29.25;26.50;;;;;;;;4996634;28;45517;-66
2022/01/22 10:45:08;;;;;;;;;39.50;34.25;;;;;;;;5014115;28;45371;-67
2022/01/22 10:47:33;;;;;;;;;29.00;27.25;;;;;;;;5015149;28;45425;-67
2022/01/22 10:50:15;;;;;;;;;31.50;28.75;;;;;;;;5032818;28;45962;-66
2022/01/22 10:52:51;;;;;;;;;33.25;30.75;;;;;;;;5037990;28;45582;-66
2022/01/22 10:55:16;;;;;;;;;45.75;38.75;;;;;;;;5051150;28;45723;-65
2022/01/22 10:58:01;;;;;;;;;42.00;37.75;;;;;;;;5074039;28;45579;-65
2022/01/22 11:00:26;;;;;;;;;33.50;33.50;;;;;;;;5074020;28;47597;-67
2022/01/22 11:02:52;;;;;;;;;30.25;27.25;;;;;;;;5073921;28;45496;-66
2022/01/22 11:05:33;;;;;;;;;40.25;35.25;;;;;;;;5074505;27;45471;-66
2022/01/22 11:08:08;;;;;;;;;40.25;34.75;;;;;;;;5074744;27;45436;-66
2022/01/22 11:10:34;;;;;;;;;41.75;36.50;;;;;;;;5074981;27;46620;-66
2022/01/22 11:12:59;;;;;;;;;36.75;34.75;;;;;;;;5056011;28;45315;-65
2022/01/22 11:15:24;;;;;;;;;32.75;30.50;;;;;;;;5055040;28;45591;-65
2022/01/22 11:17:50;;;;;;;;;32.50;32.50;;;;;;;;5074105;28;45482;-65
2022/01/22 11:20:15;;;;;;;;;31.50;28.75;;;;;;;;5077100;27;46530;-66
2022/01/22 11:22:40;;;;;;;;;26.25;25.50;;;;;;;;5077930;27;45527;-65
2022/01/22 11:25:07;;;;;;;;;22.75;22.75;;;;;;;;5094089;27;45625;-65
2022/01/22 11:27:36;;;;;;;;;27.25;23.50;;;;;;;;5094408;27;45548;-65
2022/01/22 11:30:05;;;;;;;;;30.00;27.00;;;;;;;;5093974;27;45504;-65
2022/01/22 11:32:33;;;;;;;;;26.75;25.75;;;;;;;;5074132;27;45598;-65
2022/01/22 11:35:02;;;;;;;;;27.25;26.50;;;;;;;;5093628;27;45502;-65
2022/01/22 11:37:32;;;;;;;;;27.00;24.75;;;;;;;;5075577;27;45427;-66
2022/01/22 11:40:10;;;;;;;;;34.50;30.00;;;;;;;;5074893;27;47427;-66
2022/01/22 11:43:00;;;;;;;;;37.75;34.75;;;;;;;;5093295;27;45345;-66
2022/01/22 11:45:27;;;;;;;;;37.25;32.25;;;;;;;;5092993;27;45281;-65
2022/01/22 11:48:10;;;;;;;;;25.25;23.50;;;;;;;;5092544;27;45606;-65
2022/01/22 11:50:35;;;;;;;;;34.00;32.50;;;;;;;;5074883;27;48559;-66
2022/01/22 11:53:19;;;;;;;;;30.75;29.25;;;;;;;;5092461;27;45379;-71
2022/01/22 11:56:04;;;;;;;;;25.00;22.75;;;;;;;;5093565;27;45415;-66
2022/01/22 11:58:30;;;;;;;;;28.50;28.50;;;;;;;;5093701;27;45573;-66
2022/01/22 12:00:55;;;;;;;;;34.00;29.50;;;;;;;;5093719;27;46530;-66
2022/01/22 12:03:20;;;;;;;;;30.00;28.00;;;;;;;;5075157;27;45921;-65
2022/01/22 12:05:54;;;;;;;;;33.50;31.00;;;;;;;;5093413;27;45361;-65
2022/01/22 12:08:20;;;;;;;;;30.75;29.50;;;;;;;;5056375;27;45586;-65
2022/01/22 12:16:36;;;;;;;;;28.00;27.25;;;;;;;;5089144;27;45542;-66
2022/01/22 12:19:03;;;;;;;;;29.50;27.25;;;;;;;;5081073;27;45518;-64
2022/01/22 12:21:38;;;;;;;;;34.25;28.00;;;;;;;;5050597;27;48094;-65
2022/01/22 12:24:05;;;;;;;;;36.25;32.00;;;;;;;;5086350;27;45446;-64
2022/01/22 12:26:36;;;;;;;;;49.75;42.00;;;;;;;;5057060;27;45573;-64
2022/01/22 12:29:22;;;;;;;;;41.50;36.75;;;;;;;;5084210;27;45282;-67
2022/01/22 12:32:06;;;;;;;;;41.75;37.75;;;;;;;;5089889;27;47210;-65
2022/01/22 12:34:49;;;;;;;;;54.75;44.75;;;;;;;;5093049;27;45300;-67
2022/01/22 12:37:21;;;;;;;;;31.00;30.00;;;;;;;;5089908;27;45486;-66
2022/01/22 12:39:53;;;;;;;;;34.50;33.50;;;;;;;;5087112;27;45380;-68
2022/01/22 12:42:28;;;;;;;;;31.00;28.50;;;;;;;;5071618;27;45418;-68
2022/01/22 12:44:58;;;;;;;;;25.75;25.75;;;;;;;;5089808;27;46684;-66
2022/01/22 12:47:25;;;;;;;;;33.75;31.25;;;;;;;;5087638;27;45574;-67
2022/01/22 12:50:01;;;;;;;;;87.50;79.25;;;;;;;;5069501;27;45497;-66
2022/01/22 12:52:27;;;;;;;;;52.75;44.00;;;;;;;;5067720;28;47615;-67
2022/01/22 12:54:57;;;;;;;;;53.50;45.25;;;;;;;;5089642;27;45512;-66
2022/01/22 12:57:24;;;;;;;;;44.25;37.25;;;;;;;;5091697;27;45581;-67
2022/01/22 12:59:49;;;;;;;;;37.75;32.75;;;;;;;;5091743;27;45581;-66
2022/01/22 13:02:14;;;;;;;;;40.00;36.75;;;;;;;;5094874;27;46200;-68
2022/01/22 13:04:39;;;;;;;;;41.75;35.75;;;;;;;;5069059;28;45916;-66
2022/01/22 13:07:11;;;;;;;;;48.00;40.00;;;;;;;;5093413;27;45377;-65
2022/01/22 13:09:42;;;;;;;;;34.75;32.00;;;;;;;;5096034;27;45435;-66
2022/01/22 13:12:10;;;;;;;;;41.00;35.75;;;;;;;;5077597;27;46793;-66
2022/01/22 13:14:35;;;;;;;;;48.25;41.25;;;;;;;;5077945;27;45400;-66
2022/01/22 13:17:00;;;;;;;;;32.50;29.75;;;;;;;;5095198;27;46045;-65
2022/01/22 13:19:28;;;;;;;;;33.00;31.25;;;;;;;;5067581;27;45814;-66
2022/01/22 13:21:59;;;;;;;;;41.25;37.00;;;;;;;;5089756;27;46697;-65
2022/01/22 13:24:25;;;;;;;;;42.25;36.75;;;;;;;;5084275;27;46788;-65
2022/01/22 13:26:59;;;;;;;;;46.00;40.50;;;;;;;;5093870;27;45391;-64
2022/01/22 13:49:52;;;;;;;;;50.00;38.50;;;;;;;;5093127;27;45819;-68
2022/01/22 13:52:19;;;;;;;;;47.75;41.25;;;;;;;;5094208;27;45435;-68
2022/01/22 13:54:52;;;;;;;;;49.50;41.75;;;;;;;;5093549;27;46509;-69
2022/01/22 13:57:18;;;;;;;;;35.00;34.00;;;;;;;;5092369;27;45420;-67
2022/01/22 13:59:45;;;;;;;;;30.50;29.25;;;;;;;;5076557;27;45751;-68
2022/01/22 14:02:16;;;;;;;;;44.50;39.25;;;;;;;;5092524;27;46126;-68
2022/01/22 14:04:41;;;;;;;;;48.50;41.25;;;;;;;;5089762;27;46497;-66
2022/01/22 14:07:13;;;;;;;;;58.00;47.75;;;;;;;;5080642;27;45583;-64
2022/01/22 14:09:38;;;;;;;;;53.50;45.50;;;;;;;;5089391;27;45618;-65
2022/01/22 14:12:05;;;;;;;;;61.25;50.50;;;;;;;;5092588;27;45511;-65
2022/01/22 14:14:49;;;;;;;;;60.50;49.25;;;;;;;;5093210;27;46307;-65
2022/01/22 14:17:16;;;;;;;;;56.75;48.50;;;;;;;;5065949;27;45436;-65
2022/01/22 14:19:41;;;;;;;;;53.75;45.00;;;;;;;;5092182;27;45608;-66
2022/01/22 14:22:06;;;;;;;;;45.00;38.25;;;;;;;;5094968;27;45391;-67
2022/01/22 14:24:31;;;;;;;;;63.50;52.50;;;;;;;;5092989;27;47033;-67
2022/01/22 14:26:57;;;;;;;;;65.75;51.75;;;;;;;;5092018;27;45721;-68
2022/01/22 14:29:22;;;;;;;;;64.25;49.75;;;;;;;;5093772;27;45709;-66
2022/01/22 14:31:53;;;;;;;;;35.25;33.50;;;;;;;;5092142;27;45527;-67
2022/01/22 14:34:33;;;;;;;;;45.00;38.50;;;;;;;;5090514;27;47855;-67
2022/01/22 14:36:59;;;;;;;;;47.75;40.75;;;;;;;;5093338;27;45894;-67
2022/01/22 14:45:06;;;;;;;;;42.25;37.25;;;;;;;;5071691;27;45869;-67
2022/01/22 14:47:31;;;;;;;;;47.25;38.75;;;;;;;;5084249;27;45579;-67
2022/01/22 14:50:00;;;;;;;;;40.75;36.50;;;;;;;;5092620;27;47953;-65
2022/01/22 14:52:25;;;;;;;;;39.25;35.00;;;;;;;;5086806;27;45522;-66
2022/01/22 14:54:51;;;;;;;;;44.50;37.50;;;;;;;;5083704;27;46358;-66
2022/01/22 14:57:21;;;;;;;;;44.00;38.00;;;;;;;;5090837;27;45669;-66
2022/01/22 14:59:47;;;;;;;;;47.75;40.00;;;;;;;;5088429;27;45685;-66
2022/01/22 15:02:12;;;;;;;;;54.50;44.00;;;;;;;;5090747;27;45525;-67
2022/01/22 15:04:38;;;;;;;;;49.75;41.75;;;;;;;;5089726;27;47421;-66
2022/01/22 15:07:06;;;;;;;;;43.75;37.75;;;;;;;;5091204;27;45472;-66
2022/01/22 15:09:32;;;;;;;;;36.75;32.25;;;;;;;;5086983;27;45531;-66
2022/01/22 15:11:58;;;;;;;;;45.50;38.25;;;;;;;;5091247;27;45642;-68
2022/01/22 15:14:26;;;;;;;;;42.00;36.00;;;;;;;;5088020;27;45674;-66
2022/01/22 15:17:13;;;;;;;;;46.75;37.25;;;;;;;;5085073;27;45655;-65
2022/01/22 15:19:37;;;;;;;;;48.50;41.00;;;;;;;;5077589;27;47209;-65
2022/01/22 15:22:04;;;;;;;;;46.75;40.50;;;;;;;;5073256;27;45524;-66
2022/01/22 15:24:29;;;;;;;;;43.25;38.00;;;;;;;;5091394;27;45543;-65
2022/01/22 15:26:54;;;;;;;;;46.50;40.00;;;;;;;;5088215;27;45407;-65
2022/01/22 15:29:26;;;;;;;;;55.00;42.25;;;;;;;;5093170;27;45539;-65
2022/01/22 15:32:04;;;;;;;;;42.75;37.75;;;;;;;;5071553;27;45640;-65
2022/01/22 15:36:59;;;;;;;;;47.50;38.25;;;;;;;;5087698;27;45400;-63
2022/01/22 15:39:25;;;;;;;;;53.00;42.50;;;;;;;;5070686;27;45610;-65
2022/01/22 15:41:51;;;;;;;;;47.00;38.50;;;;;;;;5091653;27;48175;-65
2022/01/22 15:44:16;;;;;;;;;42.25;37.75;;;;;;;;5074162;27;47627;-64
2022/01/22 15:46:44;;;;;;;;;50.50;43.50;;;;;;;;5082905;27;45655;-63
2022/01/22 15:49:14;;;;;;;;;58.25;46.75;;;;;;;;5084710;27;45491;-64
2022/01/22 15:51:40;;;;;;;;;49.00;41.75;;;;;;;;5072336;27;45595;-64
2022/01/22 15:54:05;;;;;;;;;56.75;47.25;;;;;;;;5084361;27;45865;-64
2022/01/22 15:56:30;;;;;;;;;48.75;37.50;;;;;;;;5082765;27;45932;-64
2022/01/22 15:58:56;;;;;;;;;42.75;37.50;;;;;;;;5088972;27;45430;-64
2022/01/22 16:01:21;;;;;;;;;64.50;52.75;;;;;;;;5085647;27;45418;-64
2022/01/22 16:03:54;;;;;;;;;60.25;50.00;;;;;;;;5088893;27;46482;-65
2022/01/22 16:06:19;;;;;;;;;57.75;48.75;;;;;;;;5088679;27;45746;-62
2022/01/22 16:08:48;;;;;;;;;56.50;45.25;;;;;;;;5090041;27;45411;-64
2022/01/22 16:11:14;;;;;;;;;55.25;46.50;;;;;;;;5090364;27;45430;-64
2022/01/22 16:13:41;;;;;;;;;60.25;49.75;;;;;;;;5085371;27;45874;-65
2022/01/22 16:16:07;;;;;;;;;60.50;50.00;;;;;;;;5083895;27;45483;-65
2022/01/22 16:18:33;;;;;;;;;62.50;52.75;;;;;;;;5080859;27;45958;-63
2022/01/22 16:20:58;;;;;;;;;72.50;57.50;;;;;;;;5080221;27;45537;-66
2022/01/22 16:23:24;;;;;;;;;67.50;52.25;;;;;;;;5092354;27;45507;-64
2022/01/22 16:25:49;;;;;;;;;57.25;47.00;;;;;;;;5090583;27;45328;-65
2022/01/22 16:28:15;;;;;;;;;49.25;40.75;;;;;;;;5088259;27;45425;-64
2022/01/22 16:30:40;;;;;;;;;56.00;45.50;;;;;;;;5071709;27;46070;-65
2022/01/22 16:33:05;;;;;;;;;44.25;39.50;;;;;;;;5071482;27;48843;-65
2022/01/22 16:35:30;;;;;;;;;43.00;38.00;;;;;;;;5090298;27;45420;-65